sensor_id;sensor_type;location;lat;lon;timestamp;P1;durP1;ratioP1;P2;durP2;ratioP2
34920;SDS011;21128;50.016;20.002;2023-06-26T00:00:12;11.03;;;6.47;;
34920;SDS011;21128;50.016;20.002;2023-06-26T00:02:59;8.70;;;6.20;;
34920;SDS011;21128;50.016;20.002;2023-06-26T00:05:27;8.90;;;6.57;;
34920;SDS011;21128;50.016;20.002;2023-06-26T00:07:54;12.05;;;6.42;;
34920;SDS011;21128;50.016;20.002;2023-06-26T00:10:21;9.43;;;6.70;;
34920;SDS011;21128;50.016;20.002;2023-06-26T00:12:48;10.05;;;6.17;;
34920;SDS011;21128;50.016;20.002;2023-06-26T00:15:15;11.10;;;6.30;;
34920;SDS011;21128;50.016;20.002;2023-06-26T00:17:42;10.73;;;6.13;;
34920;SDS011;21128;50.016;20.002;2023-06-26T00:20:11;9.90;;;6.50;;
34920;SDS011;21128;50.016;20.002;2023-06-26T00:22:38;9.60;;;6.47;;
34920;SDS011;21128;50.016;20.002;2023-06-26T00:25:08;12.30;;;6.77;;
34920;SDS011;21128;50.016;20.002;2023-06-26T00:27:35;10.67;;;6.83;;
34920;SDS011;21128;50.016;20.002;2023-06-26T00:30:02;12.57;;;7.27;;
34920;SDS011;21128;50.016;20.002;2023-06-26T00:32:31;13.47;;;6.93;;
34920;SDS011;21128;50.016;20.002;2023-06-26T00:34:58;10.15;;;6.33;;
34920;SDS011;21128;50.016;20.002;2023-06-26T00:37:25;12.77;;;6.83;;
34920;SDS011;21128;50.016;20.002;2023-06-26T00:39:52;10.17;;;6.23;;
34920;SDS011;21128;50.016;20.002;2023-06-26T00:42:19;8.90;;;6.63;;
34920;SDS011;21128;50.016;20.002;2023-06-26T00:44:45;11.20;;;6.90;;
34920;SDS011;21128;50.016;20.002;2023-06-26T00:47:13;11.53;;;6.70;;
34920;SDS011;21128;50.016;20.002;2023-06-26T00:49:42;12.20;;;6.80;;
34920;SDS011;21128;50.016;20.002;2023-06-26T00:52:09;10.03;;;6.12;;
34920;SDS011;21128;50.016;20.002;2023-06-26T00:54:36;11.70;;;6.63;;
34920;SDS011;21128;50.016;20.002;2023-06-26T00:57:03;15.03;;;6.93;;
34920;SDS011;21128;50.016;20.002;2023-06-26T00:59:30;12.55;;;6.60;;
34920;SDS011;21128;50.016;20.002;2023-06-26T01:01:58;12.07;;;6.73;;
34920;SDS011;21128;50.016;20.002;2023-06-26T01:04:25;8.20;;;6.33;;
34920;SDS011;21128;50.016;20.002;2023-06-26T01:06:54;12.10;;;6.70;;
34920;SDS011;21128;50.016;20.002;2023-06-26T01:09:22;11.67;;;7.03;;
34920;SDS011;21128;50.016;20.002;2023-06-26T01:11:50;18.50;;;7.35;;
34920;SDS011;21128;50.016;20.002;2023-06-26T01:14:17;10.50;;;7.03;;
34920;SDS011;21128;50.016;20.002;2023-06-26T01:16:44;13.75;;;6.80;;
34920;SDS011;21128;50.016;20.002;2023-06-26T01:19:18;10.10;;;6.97;;
34920;SDS011;21128;50.016;20.002;2023-06-26T01:21:54;16.13;;;6.83;;
34920;SDS011;21128;50.016;20.002;2023-06-26T01:24:32;12.70;;;6.50;;
34920;SDS011;21128;50.016;20.002;2023-06-26T01:27:03;12.07;;;7.23;;
34920;SDS011;21128;50.016;20.002;2023-06-26T01:29:31;13.80;;;7.40;;
34920;SDS011;21128;50.016;20.002;2023-06-26T01:32:00;12.15;;;6.75;;
34920;SDS011;21128;50.016;20.002;2023-06-26T01:34:28;9.50;;;7.30;;
34920;SDS011;21128;50.016;20.002;2023-06-26T01:36:56;9.53;;;6.77;;
34920;SDS011;21128;50.016;20.002;2023-06-26T01:39:24;11.20;;;7.45;;
34920;SDS011;21128;50.016;20.002;2023-06-26T01:41:51;11.87;;;7.23;;
34920;SDS011;21128;50.016;20.002;2023-06-26T01:44:32;12.33;;;8.13;;
34920;SDS011;21128;50.016;20.002;2023-06-26T01:47:04;11.40;;;7.03;;
34920;SDS011;21128;50.016;20.002;2023-06-26T01:49:40;12.27;;;7.43;;
34920;SDS011;21128;50.016;20.002;2023-06-26T01:52:12;12.93;;;7.80;;
34920;SDS011;21128;50.016;20.002;2023-06-26T01:57:32;11.50;;;7.70;;
34920;SDS011;21128;50.016;20.002;2023-06-26T02:00:02;12.57;;;7.97;;
34920;SDS011;21128;50.016;20.002;2023-06-26T02:02:30;15.47;;;8.53;;
34920;SDS011;21128;50.016;20.002;2023-06-26T02:04:57;15.77;;;7.93;;
34920;SDS011;21128;50.016;20.002;2023-06-26T02:07:24;14.40;;;7.63;;
34920;SDS011;21128;50.016;20.002;2023-06-26T02:09:51;12.98;;;7.58;;
34920;SDS011;21128;50.016;20.002;2023-06-26T02:12:18;16.20;;;7.10;;
34920;SDS011;21128;50.016;20.002;2023-06-26T02:14:45;13.38;;;7.28;;
34920;SDS011;21128;50.016;20.002;2023-06-26T02:17:12;9.87;;;7.27;;
34920;SDS011;21128;50.016;20.002;2023-06-26T02:19:39;12.83;;;7.07;;
34920;SDS011;21128;50.016;20.002;2023-06-26T02:22:14;11.23;;;7.43;;
34920;SDS011;21128;50.016;20.002;2023-06-26T02:24:45;9.83;;;6.93;;
34920;SDS011;21128;50.016;20.002;2023-06-26T02:27:12;10.80;;;6.67;;
34920;SDS011;21128;50.016;20.002;2023-06-26T02:29:39;18.23;;;7.00;;
34920;SDS011;21128;50.016;20.002;2023-06-26T02:32:08;9.90;;;7.07;;
34920;SDS011;21128;50.016;20.002;2023-06-26T02:34:35;13.67;;;7.37;;
34920;SDS011;21128;50.016;20.002;2023-06-26T02:37:02;13.30;;;7.00;;
34920;SDS011;21128;50.016;20.002;2023-06-26T02:39:30;10.60;;;6.60;;
34920;SDS011;21128;50.016;20.002;2023-06-26T02:41:56;13.93;;;7.07;;
34920;SDS011;21128;50.016;20.002;2023-06-26T02:44:23;11.67;;;7.13;;
34920;SDS011;21128;50.016;20.002;2023-06-26T02:46:50;10.78;;;6.50;;
34920;SDS011;21128;50.016;20.002;2023-06-26T02:49:17;10.13;;;6.37;;
34920;SDS011;21128;50.016;20.002;2023-06-26T02:51:44;9.00;;;6.60;;
34920;SDS011;21128;50.016;20.002;2023-06-26T02:54:11;12.77;;;6.90;;
34920;SDS011;21128;50.016;20.002;2023-06-26T02:56:38;10.53;;;6.87;;
34920;SDS011;21128;50.016;20.002;2023-06-26T02:59:05;15.47;;;7.50;;
34920;SDS011;21128;50.016;20.002;2023-06-26T03:01:33;12.40;;;7.45;;
34920;SDS011;21128;50.016;20.002;2023-06-26T03:04:00;11.10;;;7.53;;
34920;SDS011;21128;50.016;20.002;2023-06-26T03:06:27;8.40;;;6.53;;
34920;SDS011;21128;50.016;20.002;2023-06-26T03:08:54;12.50;;;7.97;;
34920;SDS011;21128;50.016;20.002;2023-06-26T03:11:21;13.37;;;7.30;;
34920;SDS011;21128;50.016;20.002;2023-06-26T03:13:48;12.73;;;6.72;;
34920;SDS011;21128;50.016;20.002;2023-06-26T03:16:15;12.03;;;7.67;;
34920;SDS011;21128;50.016;20.002;2023-06-26T03:18:42;11.03;;;7.17;;
34920;SDS011;21128;50.016;20.002;2023-06-26T03:21:09;13.67;;;7.23;;
34920;SDS011;21128;50.016;20.002;2023-06-26T03:23:36;11.93;;;7.97;;
34920;SDS011;21128;50.016;20.002;2023-06-26T03:26:03;15.70;;;6.97;;
34920;SDS011;21128;50.016;20.002;2023-06-26T03:28:30;11.30;;;7.53;;
34920;SDS011;21128;50.016;20.002;2023-06-26T03:30:57;13.63;;;7.70;;
34920;SDS011;21128;50.016;20.002;2023-06-26T03:33:24;14.70;;;7.97;;
34920;SDS011;21128;50.016;20.002;2023-06-26T03:35:52;15.80;;;7.30;;
34920;SDS011;21128;50.016;20.002;2023-06-26T03:38:19;10.47;;;7.53;;
34920;SDS011;21128;50.016;20.002;2023-06-26T03:40:46;14.97;;;8.20;;
34920;SDS011;21128;50.016;20.002;2023-06-26T03:43:13;19.60;;;7.65;;
34920;SDS011;21128;50.016;20.002;2023-06-26T03:45:40;11.90;;;7.55;;
34920;SDS011;21128;50.016;20.002;2023-06-26T03:48:07;10.65;;;7.85;;
34920;SDS011;21128;50.016;20.002;2023-06-26T03:50:34;10.23;;;7.43;;
34920;SDS011;21128;50.016;20.002;2023-06-26T03:53:01;11.25;;;7.55;;
34920;SDS011;21128;50.016;20.002;2023-06-26T03:55:28;11.20;;;7.23;;
34920;SDS011;21128;50.016;20.002;2023-06-26T03:57:55;16.07;;;8.00;;
34920;SDS011;21128;50.016;20.002;2023-06-26T04:00:22;10.72;;;7.75;;
34920;SDS011;21128;50.016;20.002;2023-06-26T04:02:49;11.57;;;7.90;;
34920;SDS011;21128;50.016;20.002;2023-06-26T04:05:18;14.23;;;7.03;;
34920;SDS011;21128;50.016;20.002;2023-06-26T04:07:45;16.43;;;8.10;;
34920;SDS011;21128;50.016;20.002;2023-06-26T04:10:12;13.80;;;7.80;;
34920;SDS011;21128;50.016;20.002;2023-06-26T04:12:39;13.45;;;7.17;;
34920;SDS011;21128;50.016;20.002;2023-06-26T04:15:06;11.43;;;7.23;;
34920;SDS011;21128;50.016;20.002;2023-06-26T04:17:34;12.43;;;7.93;;
34920;SDS011;21128;50.016;20.002;2023-06-26T04:20:01;14.83;;;7.55;;
34920;SDS011;21128;50.016;20.002;2023-06-26T04:22:28;11.18;;;7.78;;
34920;SDS011;21128;50.016;20.002;2023-06-26T04:24:55;12.30;;;7.33;;
34920;SDS011;21128;50.016;20.002;2023-06-26T04:27:22;10.35;;;7.37;;
34920;SDS011;21128;50.016;20.002;2023-06-26T04:29:49;12.13;;;7.17;;
34920;SDS011;21128;50.016;20.002;2023-06-26T04:32:16;11.40;;;6.73;;
34920;SDS011;21128;50.016;20.002;2023-06-26T04:34:43;9.50;;;7.40;;
34920;SDS011;21128;50.016;20.002;2023-06-26T04:37:10;14.43;;;7.97;;
34920;SDS011;21128;50.016;20.002;2023-06-26T04:39:37;9.83;;;7.27;;
34920;SDS011;21128;50.016;20.002;2023-06-26T04:42:05;10.10;;;7.90;;
34920;SDS011;21128;50.016;20.002;2023-06-26T04:44:33;10.72;;;7.67;;
34920;SDS011;21128;50.016;20.002;2023-06-26T04:47:00;13.15;;;7.80;;
34920;SDS011;21128;50.016;20.002;2023-06-26T04:49:27;13.10;;;8.38;;
34920;SDS011;21128;50.016;20.002;2023-06-26T04:51:54;12.95;;;7.95;;
34920;SDS011;21128;50.016;20.002;2023-06-26T04:54:22;11.93;;;7.30;;
34920;SDS011;21128;50.016;20.002;2023-06-26T04:56:49;13.43;;;7.83;;
34920;SDS011;21128;50.016;20.002;2023-06-26T04:59:16;15.03;;;8.03;;
34920;SDS011;21128;50.016;20.002;2023-06-26T05:01:43;13.85;;;8.05;;
34920;SDS011;21128;50.016;20.002;2023-06-26T05:04:14;12.87;;;7.63;;
34920;SDS011;21128;50.016;20.002;2023-06-26T05:06:43;15.73;;;8.47;;
34920;SDS011;21128;50.016;20.002;2023-06-26T05:09:10;18.20;;;8.20;;
34920;SDS011;21128;50.016;20.002;2023-06-26T05:11:37;12.83;;;7.77;;
34920;SDS011;21128;50.016;20.002;2023-06-26T05:14:04;11.45;;;7.25;;
34920;SDS011;21128;50.016;20.002;2023-06-26T05:16:34;13.33;;;8.17;;
34920;SDS011;21128;50.016;20.002;2023-06-26T05:19:01;10.90;;;8.17;;
34920;SDS011;21128;50.016;20.002;2023-06-26T05:21:29;10.40;;;7.47;;
34920;SDS011;21128;50.016;20.002;2023-06-26T05:23:57;10.50;;;7.57;;
34920;SDS011;21128;50.016;20.002;2023-06-26T05:26:25;14.40;;;8.20;;
34920;SDS011;21128;50.016;20.002;2023-06-26T05:28:53;11.83;;;7.53;;
34920;SDS011;21128;50.016;20.002;2023-06-26T05:31:20;14.63;;;7.73;;
34920;SDS011;21128;50.016;20.002;2023-06-26T05:33:48;16.15;;;7.70;;
34920;SDS011;21128;50.016;20.002;2023-06-26T05:36:16;21.80;;;8.50;;
34920;SDS011;21128;50.016;20.002;2023-06-26T05:38:44;18.83;;;8.13;;
34920;SDS011;21128;50.016;20.002;2023-06-26T05:41:11;19.43;;;7.57;;
34920;SDS011;21128;50.016;20.002;2023-06-26T05:43:39;11.50;;;8.23;;
34920;SDS011;21128;50.016;20.002;2023-06-26T05:46:06;13.37;;;7.93;;
34920;SDS011;21128;50.016;20.002;2023-06-26T05:48:33;14.17;;;7.77;;
34920;SDS011;21128;50.016;20.002;2023-06-26T05:51:00;13.70;;;7.97;;
34920;SDS011;21128;50.016;20.002;2023-06-26T05:53:27;16.23;;;7.37;;
34920;SDS011;21128;50.016;20.002;2023-06-26T05:55:56;14.77;;;8.23;;
34920;SDS011;21128;50.016;20.002;2023-06-26T05:58:24;13.80;;;7.35;;
34920;SDS011;21128;50.016;20.002;2023-06-26T06:00:55;15.17;;;7.93;;
34920;SDS011;21128;50.016;20.002;2023-06-26T06:03:23;15.23;;;8.03;;
34920;SDS011;21128;50.016;20.002;2023-06-26T06:05:50;10.67;;;7.40;;
34920;SDS011;21128;50.016;20.002;2023-06-26T06:08:17;14.50;;;8.20;;
34920;SDS011;21128;50.016;20.002;2023-06-26T06:10:44;14.90;;;8.00;;
34920;SDS011;21128;50.016;20.002;2023-06-26T06:13:11;21.63;;;8.07;;
34920;SDS011;21128;50.016;20.002;2023-06-26T06:15:38;11.00;;;7.23;;
34920;SDS011;21128;50.016;20.002;2023-06-26T06:18:05;20.13;;;8.13;;
34920;SDS011;21128;50.016;20.002;2023-06-26T06:20:32;14.00;;;7.47;;
34920;SDS011;21128;50.016;20.002;2023-06-26T06:22:59;14.23;;;7.90;;
34920;SDS011;21128;50.016;20.002;2023-06-26T06:25:26;12.87;;;7.17;;
34920;SDS011;21128;50.016;20.002;2023-06-26T06:27:53;17.33;;;8.40;;
34920;SDS011;21128;50.016;20.002;2023-06-26T06:30:20;11.90;;;7.73;;
34920;SDS011;21128;50.016;20.002;2023-06-26T06:32:47;14.50;;;7.90;;
34920;SDS011;21128;50.016;20.002;2023-06-26T06:35:17;12.17;;;7.60;;
34920;SDS011;21128;50.016;20.002;2023-06-26T06:37:45;15.13;;;7.30;;
34920;SDS011;21128;50.016;20.002;2023-06-26T06:40:12;14.00;;;7.78;;
34920;SDS011;21128;50.016;20.002;2023-06-26T06:42:40;11.60;;;7.33;;
34920;SDS011;21128;50.016;20.002;2023-06-26T06:45:07;14.97;;;7.47;;
34920;SDS011;21128;50.016;20.002;2023-06-26T06:47:34;12.53;;;7.33;;
34920;SDS011;21128;50.016;20.002;2023-06-26T06:50:01;16.00;;;7.13;;
34920;SDS011;21128;50.016;20.002;2023-06-26T06:52:38;15.00;;;7.57;;
34920;SDS011;21128;50.016;20.002;2023-06-26T06:55:07;14.40;;;7.85;;
34920;SDS011;21128;50.016;20.002;2023-06-26T06:57:39;11.00;;;7.67;;
34920;SDS011;21128;50.016;20.002;2023-06-26T07:00:08;14.20;;;7.80;;
34920;SDS011;21128;50.016;20.002;2023-06-26T07:02:37;11.00;;;7.10;;
34920;SDS011;21128;50.016;20.002;2023-06-26T07:05:06;10.00;;;6.47;;
34920;SDS011;21128;50.016;20.002;2023-06-26T07:07:33;12.57;;;6.67;;
34920;SDS011;21128;50.016;20.002;2023-06-26T07:10:11;10.50;;;7.00;;
34920;SDS011;21128;50.016;20.002;2023-06-26T07:12:40;15.00;;;7.00;;
34920;SDS011;21128;50.016;20.002;2023-06-26T07:15:07;19.27;;;6.27;;
34920;SDS011;21128;50.016;20.002;2023-06-26T07:17:35;13.83;;;6.20;;
34920;SDS011;21128;50.016;20.002;2023-06-26T07:20:02;12.43;;;6.23;;
34920;SDS011;21128;50.016;20.002;2023-06-26T07:22:37;14.53;;;7.33;;
34920;SDS011;21128;50.016;20.002;2023-06-26T07:25:04;11.20;;;7.00;;
34920;SDS011;21128;50.016;20.002;2023-06-26T07:27:39;16.23;;;6.53;;
34920;SDS011;21128;50.016;20.002;2023-06-26T07:30:08;10.75;;;6.20;;
34920;SDS011;21128;50.016;20.002;2023-06-26T07:32:36;15.90;;;6.00;;
34920;SDS011;21128;50.016;20.002;2023-06-26T07:35:03;14.03;;;6.17;;
34920;SDS011;21128;50.016;20.002;2023-06-26T07:37:31;11.63;;;6.10;;
34920;SDS011;21128;50.016;20.002;2023-06-26T07:39:58;8.87;;;6.00;;
34920;SDS011;21128;50.016;20.002;2023-06-26T07:42:25;12.50;;;6.27;;
34920;SDS011;21128;50.016;20.002;2023-06-26T07:44:52;14.33;;;6.37;;
34920;SDS011;21128;50.016;20.002;2023-06-26T07:47:19;8.07;;;5.90;;
34920;SDS011;21128;50.016;20.002;2023-06-26T07:49:46;10.93;;;6.17;;
34920;SDS011;21128;50.016;20.002;2023-06-26T07:52:14;9.67;;;5.00;;
34920;SDS011;21128;50.016;20.002;2023-06-26T07:54:42;7.37;;;5.07;;
34920;SDS011;21128;50.016;20.002;2023-06-26T07:57:09;8.70;;;5.67;;
34920;SDS011;21128;50.016;20.002;2023-06-26T07:59:37;13.00;;;5.80;;
34920;SDS011;21128;50.016;20.002;2023-06-26T08:02:05;10.57;;;5.67;;
34920;SDS011;21128;50.016;20.002;2023-06-26T08:04:33;9.57;;;4.90;;
34920;SDS011;21128;50.016;20.002;2023-06-26T08:07:00;8.57;;;4.23;;
34920;SDS011;21128;50.016;20.002;2023-06-26T08:09:29;10.40;;;4.63;;
34920;SDS011;21128;50.016;20.002;2023-06-26T08:11:56;7.63;;;4.73;;
34920;SDS011;21128;50.016;20.002;2023-06-26T08:14:24;9.43;;;4.87;;
34920;SDS011;21128;50.016;20.002;2023-06-26T08:16:51;5.90;;;4.53;;
34920;SDS011;21128;50.016;20.002;2023-06-26T08:19:19;6.85;;;4.53;;
34920;SDS011;21128;50.016;20.002;2023-06-26T08:21:46;5.60;;;4.07;;
34920;SDS011;21128;50.016;20.002;2023-06-26T08:24:13;6.23;;;4.37;;
34920;SDS011;21128;50.016;20.002;2023-06-26T08:26:47;7.83;;;3.97;;
34920;SDS011;21128;50.016;20.002;2023-06-26T08:29:15;5.90;;;4.20;;
34920;SDS011;21128;50.016;20.002;2023-06-26T08:31:42;5.10;;;4.20;;
34920;SDS011;21128;50.016;20.002;2023-06-26T08:34:09;9.37;;;4.90;;
34920;SDS011;21128;50.016;20.002;2023-06-26T08:36:36;7.60;;;4.03;;
34920;SDS011;21128;50.016;20.002;2023-06-26T08:39:03;4.00;;;3.43;;
34920;SDS011;21128;50.016;20.002;2023-06-26T08:41:32;10.25;;;4.20;;
34920;SDS011;21128;50.016;20.002;2023-06-26T08:43:59;7.85;;;3.40;;
34920;SDS011;21128;50.016;20.002;2023-06-26T08:46:28;8.37;;;3.83;;
34920;SDS011;21128;50.016;20.002;2023-06-26T08:48:56;6.00;;;3.53;;
34920;SDS011;21128;50.016;20.002;2023-06-26T08:51:28;7.67;;;4.13;;
34920;SDS011;21128;50.016;20.002;2023-06-26T08:54:00;4.30;;;3.55;;
34920;SDS011;21128;50.016;20.002;2023-06-26T08:56:32;4.25;;;3.50;;
34920;SDS011;21128;50.016;20.002;2023-06-26T08:59:03;5.20;;;3.70;;
34920;SDS011;21128;50.016;20.002;2023-06-26T09:01:31;6.13;;;3.30;;
34920;SDS011;21128;50.016;20.002;2023-06-26T09:03:58;4.93;;;3.30;;
34920;SDS011;21128;50.016;20.002;2023-06-26T09:06:25;7.20;;;3.98;;
34920;SDS011;21128;50.016;20.002;2023-06-26T09:08:53;9.30;;;3.80;;
34920;SDS011;21128;50.016;20.002;2023-06-26T09:11:20;5.70;;;3.77;;
34920;SDS011;21128;50.016;20.002;2023-06-26T09:13:47;5.53;;;3.57;;
34920;SDS011;21128;50.016;20.002;2023-06-26T09:16:14;5.37;;;3.63;;
34920;SDS011;21128;50.016;20.002;2023-06-26T09:18:41;5.42;;;3.30;;
34920;SDS011;21128;50.016;20.002;2023-06-26T09:21:11;8.83;;;4.10;;
34920;SDS011;21128;50.016;20.002;2023-06-26T09:23:40;7.25;;;3.80;;
34920;SDS011;21128;50.016;20.002;2023-06-26T09:26:08;5.40;;;3.30;;
34920;SDS011;21128;50.016;20.002;2023-06-26T09:28:35;8.50;;;3.92;;
34920;SDS011;21128;50.016;20.002;2023-06-26T09:31:02;4.87;;;3.52;;
34920;SDS011;21128;50.016;20.002;2023-06-26T09:33:34;5.17;;;3.60;;
34920;SDS011;21128;50.016;20.002;2023-06-26T09:36:06;7.47;;;4.17;;
34920;SDS011;21128;50.016;20.002;2023-06-26T09:38:45;7.95;;;3.70;;
34920;SDS011;21128;50.016;20.002;2023-06-26T09:41:15;4.25;;;3.62;;
34920;SDS011;21128;50.016;20.002;2023-06-26T09:43:47;6.67;;;3.60;;
34920;SDS011;21128;50.016;20.002;2023-06-26T09:46:16;5.67;;;3.50;;
34920;SDS011;21128;50.016;20.002;2023-06-26T09:48:44;6.73;;;3.60;;
34920;SDS011;21128;50.016;20.002;2023-06-26T09:51:11;6.78;;;4.22;;
34920;SDS011;21128;50.016;20.002;2023-06-26T09:53:38;5.17;;;3.93;;
34920;SDS011;21128;50.016;20.002;2023-06-26T09:56:14;10.27;;;4.03;;
34920;SDS011;21128;50.016;20.002;2023-06-26T09:58:46;5.83;;;3.90;;
34920;SDS011;21128;50.016;20.002;2023-06-26T10:01:13;11.07;;;4.33;;
34920;SDS011;21128;50.016;20.002;2023-06-26T10:03:41;9.03;;;4.23;;
34920;SDS011;21128;50.016;20.002;2023-06-26T10:06:08;8.00;;;3.80;;
34920;SDS011;21128;50.016;20.002;2023-06-26T10:08:36;7.17;;;3.83;;
34920;SDS011;21128;50.016;20.002;2023-06-26T10:11:07;6.30;;;3.97;;
34920;SDS011;21128;50.016;20.002;2023-06-26T10:13:39;11.37;;;4.17;;
34920;SDS011;21128;50.016;20.002;2023-06-26T10:16:09;4.73;;;3.73;;
34920;SDS011;21128;50.016;20.002;2023-06-26T10:18:38;4.33;;;3.67;;
34920;SDS011;21128;50.016;20.002;2023-06-26T10:21:06;5.70;;;3.13;;
34920;SDS011;21128;50.016;20.002;2023-06-26T10:23:36;7.93;;;3.47;;
34920;SDS011;21128;50.016;20.002;2023-06-26T10:26:07;11.17;;;3.97;;
34920;SDS011;21128;50.016;20.002;2023-06-26T10:28:36;7.43;;;3.97;;
34920;SDS011;21128;50.016;20.002;2023-06-26T10:31:04;9.67;;;4.20;;
34920;SDS011;21128;50.016;20.002;2023-06-26T10:33:34;5.07;;;3.73;;
34920;SDS011;21128;50.016;20.002;2023-06-26T10:36:13;7.93;;;4.40;;
34920;SDS011;21128;50.016;20.002;2023-06-26T10:38:51;7.10;;;3.87;;
34920;SDS011;21128;50.016;20.002;2023-06-26T10:41:22;13.57;;;4.10;;
34920;SDS011;21128;50.016;20.002;2023-06-26T10:44:11;6.10;;;3.60;;
34920;SDS011;21128;50.016;20.002;2023-06-26T10:46:50;4.70;;;4.00;;
34920;SDS011;21128;50.016;20.002;2023-06-26T10:49:28;6.43;;;3.77;;
34920;SDS011;21128;50.016;20.002;2023-06-26T10:51:56;5.67;;;4.37;;
34920;SDS011;21128;50.016;20.002;2023-06-26T10:54:31;4.40;;;3.87;;
34920;SDS011;21128;50.016;20.002;2023-06-26T10:56:59;5.50;;;3.67;;
34920;SDS011;21128;50.016;20.002;2023-06-26T10:59:29;7.60;;;4.30;;
34920;SDS011;21128;50.016;20.002;2023-06-26T11:01:58;4.87;;;3.70;;
34920;SDS011;21128;50.016;20.002;2023-06-26T11:10:00;7.27;;;4.07;;
34920;SDS011;21128;50.016;20.002;2023-06-26T11:12:41;7.10;;;4.10;;
34920;SDS011;21128;50.016;20.002;2023-06-26T11:15:11;8.05;;;4.20;;
34920;SDS011;21128;50.016;20.002;2023-06-26T11:17:40;6.20;;;3.83;;
34920;SDS011;21128;50.016;20.002;2023-06-26T11:20:09;7.57;;;4.00;;
34920;SDS011;21128;50.016;20.002;2023-06-26T11:22:38;9.43;;;3.83;;
34920;SDS011;21128;50.016;20.002;2023-06-26T11:25:08;10.13;;;3.87;;
34920;SDS011;21128;50.016;20.002;2023-06-26T11:30:06;6.80;;;3.75;;
34920;SDS011;21128;50.016;20.002;2023-06-26T11:32:34;6.00;;;4.10;;
34920;SDS011;21128;50.016;20.002;2023-06-26T11:35:03;7.73;;;4.23;;
34920;SDS011;21128;50.016;20.002;2023-06-26T11:37:32;7.13;;;4.00;;
34920;SDS011;21128;50.016;20.002;2023-06-26T11:39:59;4.80;;;3.80;;
34920;SDS011;21128;50.016;20.002;2023-06-26T11:42:26;6.17;;;3.80;;
34920;SDS011;21128;50.016;20.002;2023-06-26T11:44:54;8.83;;;3.93;;
34920;SDS011;21128;50.016;20.002;2023-06-26T11:47:21;6.00;;;3.30;;
34920;SDS011;21128;50.016;20.002;2023-06-26T11:49:49;4.67;;;3.00;;
34920;SDS011;21128;50.016;20.002;2023-06-26T11:52:16;4.77;;;3.10;;
34920;SDS011;21128;50.016;20.002;2023-06-26T11:54:44;8.87;;;3.47;;
34920;SDS011;21128;50.016;20.002;2023-06-26T11:57:15;5.83;;;3.43;;
34920;SDS011;21128;50.016;20.002;2023-06-26T11:59:44;4.90;;;3.40;;
34920;SDS011;21128;50.016;20.002;2023-06-26T12:02:12;6.42;;;3.25;;
34920;SDS011;21128;50.016;20.002;2023-06-26T12:04:41;5.37;;;3.93;;
34920;SDS011;21128;50.016;20.002;2023-06-26T12:07:10;4.00;;;3.20;;
34920;SDS011;21128;50.016;20.002;2023-06-26T12:09:39;6.47;;;2.70;;
34920;SDS011;21128;50.016;20.002;2023-06-26T12:12:10;6.30;;;3.33;;
34920;SDS011;21128;50.016;20.002;2023-06-26T12:14:38;4.87;;;3.60;;
34920;SDS011;21128;50.016;20.002;2023-06-26T12:17:11;8.90;;;5.17;;
34920;SDS011;21128;50.016;20.002;2023-06-26T12:19:43;6.95;;;3.90;;
34920;SDS011;21128;50.016;20.002;2023-06-26T12:22:11;12.33;;;5.17;;
34920;SDS011;21128;50.016;20.002;2023-06-26T12:24:39;6.50;;;3.80;;
34920;SDS011;21128;50.016;20.002;2023-06-26T12:27:07;5.53;;;3.33;;
34920;SDS011;21128;50.016;20.002;2023-06-26T12:29:39;4.77;;;3.40;;
34920;SDS011;21128;50.016;20.002;2023-06-26T12:32:15;5.03;;;3.63;;
34920;SDS011;21128;50.016;20.002;2023-06-26T12:34:46;6.37;;;3.50;;
34920;SDS011;21128;50.016;20.002;2023-06-26T12:37:15;5.13;;;3.80;;
34920;SDS011;21128;50.016;20.002;2023-06-26T12:39:49;7.47;;;3.70;;
34920;SDS011;21128;50.016;20.002;2023-06-26T12:42:18;6.17;;;3.50;;
34920;SDS011;21128;50.016;20.002;2023-06-26T12:44:47;7.37;;;3.20;;
34920;SDS011;21128;50.016;20.002;2023-06-26T12:47:15;7.90;;;3.63;;
34920;SDS011;21128;50.016;20.002;2023-06-26T12:49:44;7.87;;;3.40;;
34920;SDS011;21128;50.016;20.002;2023-06-26T12:52:12;6.13;;;3.80;;
34920;SDS011;21128;50.016;20.002;2023-06-26T12:54:41;5.13;;;3.87;;
34920;SDS011;21128;50.016;20.002;2023-06-26T12:57:10;6.50;;;4.00;;
34920;SDS011;21128;50.016;20.002;2023-06-26T12:59:37;5.03;;;3.60;;
34920;SDS011;21128;50.016;20.002;2023-06-26T13:02:05;6.00;;;4.00;;
34920;SDS011;21128;50.016;20.002;2023-06-26T13:04:33;8.07;;;3.77;;
34920;SDS011;21128;50.016;20.002;2023-06-26T13:07:00;6.13;;;3.70;;
34920;SDS011;21128;50.016;20.002;2023-06-26T13:09:32;7.43;;;4.23;;
34920;SDS011;21128;50.016;20.002;2023-06-26T13:12:01;11.77;;;4.23;;
34920;SDS011;21128;50.016;20.002;2023-06-26T13:14:31;7.20;;;3.73;;
34920;SDS011;21128;50.016;20.002;2023-06-26T13:17:00;6.87;;;3.83;;
34920;SDS011;21128;50.016;20.002;2023-06-26T13:19:27;5.30;;;3.67;;
34920;SDS011;21128;50.016;20.002;2023-06-26T13:21:55;11.33;;;3.90;;
34920;SDS011;21128;50.016;20.002;2023-06-26T13:24:22;4.85;;;4.05;;
34920;SDS011;21128;50.016;20.002;2023-06-26T13:26:50;6.27;;;3.80;;
34920;SDS011;21128;50.016;20.002;2023-06-26T13:29:17;9.43;;;4.20;;
34920;SDS011;21128;50.016;20.002;2023-06-26T13:31:44;8.73;;;3.90;;
34920;SDS011;21128;50.016;20.002;2023-06-26T13:34:19;9.13;;;4.03;;
34920;SDS011;21128;50.016;20.002;2023-06-26T13:36:48;10.27;;;3.63;;
34920;SDS011;21128;50.016;20.002;2023-06-26T13:39:15;6.40;;;3.70;;
34920;SDS011;21128;50.016;20.002;2023-06-26T13:41:42;5.40;;;4.00;;
34920;SDS011;21128;50.016;20.002;2023-06-26T13:44:09;6.50;;;4.20;;
34920;SDS011;21128;50.016;20.002;2023-06-26T13:46:36;8.33;;;3.90;;
34920;SDS011;21128;50.016;20.002;2023-06-26T13:49:03;8.25;;;4.00;;
34920;SDS011;21128;50.016;20.002;2023-06-26T13:51:30;7.70;;;4.10;;
34920;SDS011;21128;50.016;20.002;2023-06-26T13:53:57;7.40;;;4.47;;
34920;SDS011;21128;50.016;20.002;2023-06-26T13:56:27;6.00;;;4.05;;
34920;SDS011;21128;50.016;20.002;2023-06-26T13:58:57;5.73;;;4.47;;
34920;SDS011;21128;50.016;20.002;2023-06-26T14:01:25;5.77;;;4.37;;
34920;SDS011;21128;50.016;20.002;2023-06-26T14:03:52;9.27;;;4.73;;
34920;SDS011;21128;50.016;20.002;2023-06-26T14:06:19;8.00;;;4.30;;
34920;SDS011;21128;50.016;20.002;2023-06-26T14:08:46;8.50;;;4.23;;
34920;SDS011;21128;50.016;20.002;2023-06-26T14:11:13;8.43;;;4.40;;
34920;SDS011;21128;50.016;20.002;2023-06-26T14:13:42;8.03;;;4.28;;
34920;SDS011;21128;50.016;20.002;2023-06-26T14:16:09;9.75;;;4.50;;
34920;SDS011;21128;50.016;20.002;2023-06-26T14:18:36;9.25;;;4.25;;
34920;SDS011;21128;50.016;20.002;2023-06-26T14:21:04;7.17;;;4.20;;
34920;SDS011;21128;50.016;20.002;2023-06-26T14:23:31;6.00;;;4.33;;
34920;SDS011;21128;50.016;20.002;2023-06-26T14:25:58;5.03;;;3.77;;
34920;SDS011;21128;50.016;20.002;2023-06-26T14:28:25;7.17;;;4.30;;
34920;SDS011;21128;50.016;20.002;2023-06-26T14:30:52;8.77;;;5.03;;
34920;SDS011;21128;50.016;20.002;2023-06-26T14:33:19;8.80;;;4.37;;
34920;SDS011;21128;50.016;20.002;2023-06-26T14:35:46;8.53;;;4.22;;
34920;SDS011;21128;50.016;20.002;2023-06-26T14:38:13;7.65;;;3.95;;
34920;SDS011;21128;50.016;20.002;2023-06-26T14:40:40;5.70;;;4.15;;
34920;SDS011;21128;50.016;20.002;2023-06-26T14:43:07;6.53;;;4.20;;
34920;SDS011;21128;50.016;20.002;2023-06-26T14:45:34;7.17;;;4.57;;